Time;durP1;ratioP1;P1;durP2;ratioP2;P2;SDS_P1;SDS_P2;PMS_P1;PMS_P2;Temp;Humidity;BMP_temperature;BMP_pressure;BME280_temperature;BME280_humidity;BME280_pressure;Samples;Min_cycle;Max_cycle;Signal;HPM_P1;HPM_P2
2021/07/28 00:01:57;;;;;;;28.43;26.60;;;;;;;;;;5016664;28;20485;-90
2021/07/28 00:04:25;;;;;;;28.90;26.87;;;;;;;;;;5016254;28;20456;-90
2021/07/28 00:06:52;;;;;;;28.37;26.53;;;;;;;;;;5016902;28;20451;-90
2021/07/28 00:09:21;;;;;;;27.00;25.30;;;;;;;;;;5016638;28;20434;-90
2021/07/28 00:11:49;;;;;;;25.47;23.83;;;;;;;;;;5016684;28;20418;-89
2021/07/28 00:14:17;;;;;;;27.10;25.30;;;;;;;;;;5016395;28;20453;-89
2021/07/28 00:16:44;;;;;;;26.37;24.57;;;;;;;;;;5016854;28;20433;-89
2021/07/28 00:19:16;;;;;;;26.17;24.23;;;;;;;;;;5017341;28;20425;-90
2021/07/28 00:24:31;;;;;;;27.30;25.10;;;;;;;;;;5016324;28;20434;-90
2021/07/28 00:26:59;;;;;;;27.50;25.70;;;;;;;;;;5016245;28;20468;-89
2021/07/28 00:29:26;;;;;;;27.63;26.00;;;;;;;;;;5016196;28;20425;-90
2021/07/28 00:31:53;;;;;;;26.93;25.27;;;;;;;;;;5016021;28;20447;-90
2021/07/28 00:34:21;;;;;;;29.73;27.40;;;;;;;;;;5016244;28;20442;-90
2021/07/28 00:36:48;;;;;;;28.17;25.90;;;;;;;;;;5015898;28;20438;-90
2021/07/28 00:39:16;;;;;;;28.60;26.63;;;;;;;;;;5015019;28;20500;-90
2021/07/28 00:41:45;;;;;;;27.90;26.10;;;;;;;;;;5016135;28;20416;-90
2021/07/28 00:44:13;;;;;;;26.10;24.50;;;;;;;;;;5015789;28;20413;-90
2021/07/28 00:46:40;;;;;;;26.70;24.90;;;;;;;;;;5015531;28;20479;-90
2021/07/28 00:49:08;;;;;;;27.03;25.10;;;;;;;;;;5015437;28;20581;-90
2021/07/28 00:51:35;;;;;;;28.27;25.70;;;;;;;;;;5015740;28;20477;-90
2021/07/28 00:54:03;;;;;;;28.17;26.10;;;;;;;;;;5016180;28;20433;-90
2021/07/28 00:56:31;;;;;;;26.33;24.77;;;;;;;;;;5015645;28;20453;-89
2021/07/28 00:59:00;;;;;;;26.60;24.80;;;;;;;;;;5014229;28;20431;-90
2021/07/28 01:01:28;;;;;;;26.30;24.60;;;;;;;;;;5015730;28;20443;-90
2021/07/28 01:03:55;;;;;;;26.73;24.80;;;;;;;;;;5015670;28;20443;-90
2021/07/28 01:06:23;;;;;;;27.10;25.40;;;;;;;;;;5015190;28;20857;-90
2021/07/28 01:08:50;;;;;;;26.87;25.27;;;;;;;;;;5014327;28;20422;-90
2021/07/28 01:11:24;;;;;;;25.20;23.57;;;;;;;;;;5015232;28;20412;-90
2021/07/28 01:13:52;;;;;;;26.27;24.30;;;;;;;;;;5014242;28;20454;-89
2021/07/28 01:16:22;;;;;;;25.23;23.40;;;;;;;;;;5014592;28;20461;-90
2021/07/28 01:18:50;;;;;;;26.40;24.50;;;;;;;;;;5015387;28;20498;-89
2021/07/28 01:21:18;;;;;;;24.07;22.37;;;;;;;;;;5015249;28;20419;-90
2021/07/28 01:23:47;;;;;;;25.47;23.50;;;;;;;;;;5015113;28;20407;-90
2021/07/28 01:26:15;;;;;;;24.63;22.93;;;;;;;;;;5014951;28;20459;-90
2021/07/28 01:28:43;;;;;;;25.40;23.77;;;;;;;;;;5014920;28;20420;-90
2021/07/28 01:31:11;;;;;;;25.30;23.60;;;;;;;;;;5014916;28;20455;-90
2021/07/28 01:33:39;;;;;;;26.00;24.40;;;;;;;;;;5014910;28;20420;-90
2021/07/28 01:36:07;;;;;;;24.93;23.30;;;;;;;;;;5014803;28;20453;-89
2021/07/28 01:38:35;;;;;;;24.50;22.90;;;;;;;;;;5015126;28;20445;-90
2021/07/28 01:41:05;;;;;;;25.60;23.67;;;;;;;;;;5014744;28;20465;-90
2021/07/28 01:43:32;;;;;;;24.13;22.57;;;;;;;;;;5015656;28;20461;-90
2021/07/28 01:46:00;;;;;;;25.13;23.43;;;;;;;;;;5014888;28;20468;-90
2021/07/28 01:48:28;;;;;;;26.70;24.70;;;;;;;;;;5014834;28;20428;-90
2021/07/28 01:50:56;;;;;;;25.50;23.90;;;;;;;;;;5014367;28;20485;-89
2021/07/28 01:53:24;;;;;;;25.77;23.87;;;;;;;;;;5014880;28;20759;-90
2021/07/28 01:55:51;;;;;;;25.23;23.53;;;;;;;;;;5014356;28;20440;-90
2021/07/28 01:58:20;;;;;;;26.43;24.63;;;;;;;;;;5014861;28;20785;-90
2021/07/28 02:00:48;;;;;;;26.00;24.20;;;;;;;;;;5015266;28;20435;-90
2021/07/28 02:03:15;;;;;;;26.17;24.17;;;;;;;;;;5014624;28;20432;-90
2021/07/28 02:05:43;;;;;;;24.50;23.00;;;;;;;;;;5014462;28;20462;-90
2021/07/28 02:08:12;;;;;;;25.50;23.87;;;;;;;;;;5014431;28;20427;-90
2021/07/28 02:10:41;;;;;;;25.30;23.60;;;;;;;;;;5013607;28;20509;-91
2021/07/28 02:13:09;;;;;;;25.73;24.13;;;;;;;;;;5014872;28;20451;-91
2021/07/28 02:15:38;;;;;;;24.07;22.67;;;;;;;;;;5014551;28;20420;-90
2021/07/28 02:18:06;;;;;;;26.57;24.90;;;;;;;;;;5013487;28;20478;-90
2021/07/28 02:20:34;;;;;;;23.53;22.13;;;;;;;;;;5014813;28;20432;-91
2021/07/28 02:23:01;;;;;;;23.67;22.27;;;;;;;;;;5014670;28;20439;-90
2021/07/28 02:25:29;;;;;;;24.27;22.77;;;;;;;;;;5014191;28;20479;-90
2021/07/28 02:27:56;;;;;;;23.60;22.17;;;;;;;;;;5017246;28;20461;-90
2021/07/28 02:30:24;;;;;;;22.97;21.50;;;;;;;;;;5017169;28;20423;-90
2021/07/28 02:32:53;;;;;;;23.90;22.40;;;;;;;;;;5018302;28;20464;-90
2021/07/28 02:35:20;;;;;;;23.03;21.20;;;;;;;;;;5018360;28;20446;-90
2021/07/28 02:37:48;;;;;;;25.30;23.03;;;;;;;;;;5018147;28;20418;-90
2021/07/28 02:40:16;;;;;;;24.87;22.97;;;;;;;;;;5017938;28;20415;-90
2021/07/28 02:42:43;;;;;;;22.70;21.37;;;;;;;;;;5017358;28;20445;-90
2021/07/28 02:45:11;;;;;;;26.20;23.90;;;;;;;;;;5018636;28;20421;-90
2021/07/28 02:47:39;;;;;;;24.77;23.17;;;;;;;;;;5016999;28;20456;-90
2021/07/28 02:50:09;;;;;;;24.40;22.90;;;;;;;;;;5017842;28;20544;-91
2021/07/28 02:52:36;;;;;;;24.93;23.13;;;;;;;;;;5017933;28;20450;-90
2021/07/28 02:55:06;;;;;;;24.03;22.57;;;;;;;;;;5018057;28;20417;-90
2021/07/28 02:57:33;;;;;;;24.87;23.07;;;;;;;;;;5016532;28;20412;-91
2021/07/28 03:00:01;;;;;;;24.37;22.87;;;;;;;;;;5017655;28;20963;-91
2021/07/28 03:02:28;;;;;;;24.27;22.50;;;;;;;;;;5017842;28;20455;-90
2021/07/28 03:04:56;;;;;;;24.43;22.70;;;;;;;;;;5017783;28;20423;-90
2021/07/28 03:07:25;;;;;;;24.67;23.10;;;;;;;;;;5017756;28;20464;-90
2021/07/28 03:09:52;;;;;;;23.93;22.23;;;;;;;;;;5017789;28;20417;-90
2021/07/28 03:12:19;;;;;;;23.27;21.87;;;;;;;;;;5017282;28;20442;-90
2021/07/28 03:14:47;;;;;;;22.47;21.00;;;;;;;;;;5018072;28;20458;-90
2021/07/28 03:17:14;;;;;;;23.60;22.10;;;;;;;;;;5016233;28;20420;-91
2021/07/28 03:19:42;;;;;;;23.70;22.20;;;;;;;;;;5017376;28;20446;-90
2021/07/28 03:22:09;;;;;;;23.23;21.73;;;;;;;;;;5017725;28;20452;-90
2021/07/28 03:24:39;;;;;;;23.97;22.47;;;;;;;;;;5018314;28;20422;-90
2021/07/28 03:27:06;;;;;;;23.03;21.63;;;;;;;;;;5017185;28;20515;-90
2021/07/28 03:29:34;;;;;;;23.93;22.30;;;;;;;;;;5017145;28;20450;-90
2021/07/28 03:32:01;;;;;;;23.23;21.83;;;;;;;;;;5018514;28;20932;-90
2021/07/28 03:34:29;;;;;;;25.10;23.63;;;;;;;;;;5017412;28;20448;-90
2021/07/28 03:36:56;;;;;;;23.40;21.90;;;;;;;;;;5017146;28;20481;-90
2021/07/28 03:39:24;;;;;;;25.20;23.47;;;;;;;;;;5016416;28;20445;-90
2021/07/28 03:41:52;;;;;;;24.17;22.70;;;;;;;;;;5017159;28;20806;-90
2021/07/28 03:44:20;;;;;;;25.97;24.17;;;;;;;;;;5017062;28;20791;-89
2021/07/28 03:46:47;;;;;;;25.50;23.90;;;;;;;;;;5016803;28;20459;-90
2021/07/28 03:49:14;;;;;;;25.70;24.00;;;;;;;;;;5016670;28;20488;-89
2021/07/28 03:51:42;;;;;;;25.60;24.00;;;;;;;;;;5016774;28;20452;-90
2021/07/28 03:54:09;;;;;;;24.77;23.07;;;;;;;;;;5016665;28;20520;-90
2021/07/28 03:56:37;;;;;;;25.00;23.30;;;;;;;;;;5016432;28;20436;-89
2021/07/28 03:59:05;;;;;;;23.93;22.43;;;;;;;;;;5015645;28;20511;-90
2021/07/28 04:01:33;;;;;;;24.63;23.00;;;;;;;;;;5016451;28;20420;-90
2021/07/28 04:04:00;;;;;;;25.63;24.03;;;;;;;;;;5016590;28;20453;-87
2021/07/28 04:06:27;;;;;;;24.40;22.90;;;;;;;;;;5016310;28;20455;-88
2021/07/28 04:08:55;;;;;;;26.00;24.00;;;;;;;;;;5016434;28;20435;-87
2021/07/28 04:11:22;;;;;;;24.43;22.93;;;;;;;;;;5016585;28;20433;-89
2021/07/28 04:13:50;;;;;;;25.13;23.33;;;;;;;;;;5016923;28;20459;-89
2021/07/28 04:16:19;;;;;;;25.37;23.50;;;;;;;;;;5016214;28;20444;-88
2021/07/28 04:18:46;;;;;;;25.40;23.10;;;;;;;;;;5016366;28;20426;-88
2021/07/28 04:21:13;;;;;;;24.40;22.80;;;;;;;;;;5016117;28;20456;-88
2021/07/28 04:23:41;;;;;;;24.80;23.20;;;;;;;;;;5016377;28;20412;-88
2021/07/28 04:26:08;;;;;;;22.97;21.57;;;;;;;;;;5016077;28;20484;-87
2021/07/28 04:28:35;;;;;;;25.00;23.20;;;;;;;;;;5015914;28;20448;-88
2021/07/28 04:31:03;;;;;;;25.20;23.50;;;;;;;;;;5016258;28;20806;-87
2021/07/28 04:33:31;;;;;;;27.97;26.07;;;;;;;;;;5016080;28;20456;-87
2021/07/28 04:35:59;;;;;;;25.30;23.17;;;;;;;;;;5016063;28;20795;-87
2021/07/28 04:38:26;;;;;;;24.77;23.30;;;;;;;;;;5014837;28;20461;-88
2021/07/28 04:40:53;;;;;;;24.83;23.13;;;;;;;;;;5016045;28;20445;-87
2021/07/28 04:43:21;;;;;;;24.97;23.47;;;;;;;;;;5015987;28;20444;-87
2021/07/28 04:45:48;;;;;;;25.10;23.40;;;;;;;;;;5015757;28;20448;-87
2021/07/28 04:48:15;;;;;;;25.77;24.27;;;;;;;;;;5015672;28;20436;-88
2021/07/28 04:50:45;;;;;;;25.20;23.70;;;;;;;;;;5015227;28;20476;-88
2021/07/28 04:53:12;;;;;;;23.70;22.27;;;;;;;;;;5014601;28;21015;-88
2021/07/28 04:55:39;;;;;;;28.73;25.97;;;;;;;;;;5014334;28;20448;-88
2021/07/28 04:58:07;;;;;;;24.93;23.23;;;;;;;;;;5015450;28;20473;-88
2021/07/28 05:00:35;;;;;;;24.33;22.53;;;;;;;;;;5014528;28;20428;-89
2021/07/28 05:03:02;;;;;;;25.03;23.27;;;;;;;;;;5015603;28;20453;-88
2021/07/28 05:05:30;;;;;;;26.67;24.97;;;;;;;;;;5016189;28;20443;-88
2021/07/28 05:07:58;;;;;;;27.47;25.47;;;;;;;;;;5015492;28;20491;-88
2021/07/28 05:10:26;;;;;;;24.33;22.93;;;;;;;;;;5015207;28;20449;-89
2021/07/28 05:12:53;;;;;;;25.37;23.23;;;;;;;;;;5015413;28;20444;-89
2021/07/28 05:15:21;;;;;;;25.67;23.77;;;;;;;;;;5015383;28;20487;-89
2021/07/28 05:17:48;;;;;;;25.57;24.07;;;;;;;;;;5015444;28;20941;-89
2021/07/28 05:20:16;;;;;;;26.43;24.57;;;;;;;;;;5015046;28;20516;-89
2021/07/28 05:22:44;;;;;;;24.13;22.63;;;;;;;;;;5015212;28;20427;-89
2021/07/28 05:25:14;;;;;;;26.40;24.70;;;;;;;;;;5015379;28;20493;-89
2021/07/28 05:27:42;;;;;;;26.57;24.37;;;;;;;;;;5015079;28;20491;-89
2021/07/28 05:30:10;;;;;;;25.03;23.53;;;;;;;;;;5014819;28;20510;-89
2021/07/28 05:32:38;;;;;;;25.63;24.20;;;;;;;;;;5015060;28;20883;-87
2021/07/28 05:35:05;;;;;;;24.47;22.90;;;;;;;;;;5015089;28;20886;-89
2021/07/28 05:37:33;;;;;;;25.50;23.97;;;;;;;;;;5014975;28;20773;-89
2021/07/28 05:40:00;;;;;;;24.60;23.10;;;;;;;;;;5015447;28;20416;-89
2021/07/28 05:42:29;;;;;;;26.17;24.37;;;;;;;;;;5015054;28;20430;-89
2021/07/28 05:44:57;;;;;;;26.23;24.40;;;;;;;;;;5014971;28;20444;-89
2021/07/28 05:47:24;;;;;;;26.30;24.60;;;;;;;;;;5014834;28;20504;-88
2021/07/28 05:49:52;;;;;;;25.47;23.73;;;;;;;;;;5014462;28;20459;-89
2021/07/28 05:52:19;;;;;;;24.27;22.80;;;;;;;;;;5014768;28;20968;-90
2021/07/28 05:54:47;;;;;;;25.70;24.00;;;;;;;;;;5013873;28;20606;-89
2021/07/28 05:57:14;;;;;;;25.37;23.60;;;;;;;;;;5014603;28;20442;-89
2021/07/28 05:59:43;;;;;;;26.77;24.87;;;;;;;;;;5014462;28;20415;-89
2021/07/28 06:02:10;;;;;;;26.93;25.20;;;;;;;;;;5014147;28;20410;-89
2021/07/28 06:04:38;;;;;;;26.07;24.37;;;;;;;;;;5014658;28;20440;-89
2021/07/28 06:07:07;;;;;;;26.17;24.50;;;;;;;;;;5014306;28;21004;-88
2021/07/28 06:09:35;;;;;;;26.00;24.50;;;;;;;;;;5014745;28;20487;-89
2021/07/28 06:12:03;;;;;;;25.83;24.13;;;;;;;;;;5014605;28;20423;-88
2021/07/28 06:14:30;;;;;;;26.47;24.77;;;;;;;;;;5014664;28;20415;-89
2021/07/28 06:16:59;;;;;;;26.37;24.67;;;;;;;;;;5014556;28;20442;-87
2021/07/28 06:19:26;;;;;;;25.87;24.17;;;;;;;;;;5014629;28;20442;-89
2021/07/28 06:21:54;;;;;;;26.77;25.07;;;;;;;;;;5014614;28;20413;-88
2021/07/28 06:24:21;;;;;;;26.20;24.40;;;;;;;;;;5014648;28;20438;-89
2021/07/28 06:26:48;;;;;;;25.87;24.37;;;;;;;;;;5011331;28;20451;-89
2021/07/28 06:29:16;;;;;;;27.33;25.50;;;;;;;;;;5013365;28;20737;-89
2021/07/28 06:31:43;;;;;;;27.13;25.37;;;;;;;;;;5012833;28;20445;-89
2021/07/28 06:34:12;;;;;;;26.60;25.00;;;;;;;;;;5013441;28;20446;-90
2021/07/28 06:36:40;;;;;;;28.40;26.47;;;;;;;;;;5014197;28;20424;-90
2021/07/28 06:39:07;;;;;;;26.33;24.43;;;;;;;;;;5014256;28;20432;-90
2021/07/28 06:41:34;;;;;;;27.00;25.40;;;;;;;;;;5014273;28;20438;-91
2021/07/28 06:44:02;;;;;;;26.13;24.33;;;;;;;;;;5013270;28;20421;-91
2021/07/28 06:46:29;;;;;;;27.47;25.80;;;;;;;;;;5014036;28;20869;-90
2021/07/28 06:48:57;;;;;;;26.43;24.67;;;;;;;;;;5013887;28;20451;-90
2021/07/28 06:51:28;;;;;;;26.80;25.20;;;;;;;;;;5014162;28;20458;-90
2021/07/28 06:53:55;;;;;;;27.03;25.33;;;;;;;;;;5014838;28;20481;-90
2021/07/28 06:56:23;;;;;;;26.60;24.93;;;;;;;;;;5012643;28;20839;-90
2021/07/28 06:58:50;;;;;;;26.37;24.67;;;;;;;;;;5012971;28;20433;-89
2021/07/28 07:01:17;;;;;;;26.77;24.90;;;;;;;;;;5014461;28;20569;-89
2021/07/28 07:03:45;;;;;;;27.47;25.63;;;;;;;;;;5012946;28;20450;-90
2021/07/28 07:06:12;;;;;;;24.70;23.20;;;;;;;;;;5013898;28;20455;-90
2021/07/28 07:08:41;;;;;;;26.30;24.70;;;;;;;;;;5013736;28;21018;-90
2021/07/28 07:11:08;;;;;;;27.87;25.97;;;;;;;;;;5013870;28;20466;-90
2021/07/28 07:13:36;;;;;;;26.40;24.70;;;;;;;;;;5014849;28;20446;-90
2021/07/28 07:16:04;;;;;;;25.57;23.87;;;;;;;;;;5016707;28;20456;-90
2021/07/28 07:18:31;;;;;;;27.03;25.30;;;;;;;;;;5017568;28;20806;-91
2021/07/28 07:20:59;;;;;;;27.43;25.60;;;;;;;;;;5017842;28;20913;-90
2021/07/28 07:23:26;;;;;;;25.97;24.27;;;;;;;;;;5017531;28;20438;-90
2021/07/28 07:25:58;;;;;;;26.83;25.00;;;;;;;;;;5017371;28;20504;-91
2021/07/28 07:28:26;;;;;;;28.07;25.20;;;;;;;;;;5017260;28;20520;-91
2021/07/28 07:30:53;;;;;;;25.50;24.00;;;;;;;;;;5017430;28;20467;-90
2021/07/28 07:33:39;;;;;;;25.90;24.27;;;;;;;;;;5017117;28;20908;-90
2021/07/28 07:36:07;;;;;;;27.23;25.30;;;;;;;;;;5016894;28;20895;-90
2021/07/28 07:38:34;;;;;;;27.00;25.40;;;;;;;;;;5018864;28;20406;-90
2021/07/28 07:41:04;;;;;;;26.10;24.50;;;;;;;;;;5017313;28;20925;-92
2021/07/28 07:43:31;;;;;;;26.57;24.87;;;;;;;;;;5016189;28;20418;-86
2021/07/28 07:45:59;;;;;;;25.70;24.10;;;;;;;;;;5016717;28;20790;-94
2021/07/28 07:48:27;;;;;;;25.87;24.07;;;;;;;;;;5014793;28;20879;-82
2021/07/28 07:50:54;;;;;;;25.20;23.53;;;;;;;;;;5015548;28;20468;-82
2021/07/28 07:53:22;;;;;;;25.90;24.10;;;;;;;;;;5016206;28;20478;-83
2021/07/28 07:55:49;;;;;;;24.13;22.60;;;;;;;;;;5015851;28;20415;-83
2021/07/28 07:58:18;;;;;;;25.10;23.07;;;;;;;;;;5016569;28;20449;-82
2021/07/28 08:00:45;;;;;;;24.40;22.80;;;;;;;;;;5016291;28;20420;-83
2021/07/28 08:03:13;;;;;;;24.73;23.20;;;;;;;;;;5016159;28;20409;-83
2021/07/28 08:05:40;;;;;;;24.97;23.40;;;;;;;;;;5016415;28;20810;-83
2021/07/28 08:08:08;;;;;;;26.73;24.77;;;;;;;;;;5015682;28;20863;-83
2021/07/28 08:10:35;;;;;;;25.73;24.23;;;;;;;;;;5016169;28;20453;-82
2021/07/28 08:13:03;;;;;;;26.20;24.40;;;;;;;;;;5015676;28;20861;-82
2021/07/28 08:15:31;;;;;;;27.00;24.97;;;;;;;;;;5015556;28;20448;-82
2021/07/28 08:18:00;;;;;;;25.37;23.87;;;;;;;;;;5015397;28;20437;-82
2021/07/28 08:20:28;;;;;;;25.57;23.97;;;;;;;;;;5015520;28;20432;-83
2021/07/28 08:22:55;;;;;;;26.00;24.33;;;;;;;;;;5015921;28;20418;-83
2021/07/28 08:25:22;;;;;;;25.10;23.30;;;;;;;;;;5015361;28;20762;-83
2021/07/28 08:27:50;;;;;;;26.13;24.30;;;;;;;;;;5015797;28;20989;-84
2021/07/28 08:30:17;;;;;;;26.80;25.00;;;;;;;;;;5015668;28;20434;-82
2021/07/28 08:32:46;;;;;;;26.20;24.50;;;;;;;;;;5015703;28;20414;-83
2021/07/28 08:35:14;;;;;;;24.10;22.70;;;;;;;;;;5015381;28;20900;-85
2021/07/28 08:37:41;;;;;;;24.07;22.53;;;;;;;;;;5015885;28;20940;-83
2021/07/28 08:40:10;;;;;;;25.10;23.43;;;;;;;;;;5015239;28;20422;-82
2021/07/28 08:42:38;;;;;;;26.07;24.37;;;;;;;;;;5014990;28;20493;-82
2021/07/28 08:45:06;;;;;;;25.30;23.60;;;;;;;;;;5015056;28;20435;-82
2021/07/28 08:47:35;;;;;;;24.63;23.13;;;;;;;;;;5014795;28;20450;-82
2021/07/28 08:50:05;;;;;;;24.50;23.10;;;;;;;;;;5013691;28;20495;-82
2021/07/28 08:52:34;;;;;;;26.00;24.50;;;;;;;;;;5014955;28;20453;-82
2021/07/28 08:55:01;;;;;;;25.00;23.30;;;;;;;;;;5015633;28;20421;-82
2021/07/28 08:57:29;;;;;;;25.23;23.77;;;;;;;;;;5014958;28;20978;-82
2021/07/28 08:59:57;;;;;;;24.67;23.27;;;;;;;;;;5015170;28;20475;-83
2021/07/28 09:02:25;;;;;;;25.20;23.60;;;;;;;;;;5015258;28;20478;-82
2021/07/28 09:04:53;;;;;;;25.43;24.10;;;;;;;;;;5014951;28;20530;-82
2021/07/28 09:07:23;;;;;;;25.23;23.57;;;;;;;;;;5014864;28;20447;-83
2021/07/28 09:09:51;;;;;;;25.07;23.60;;;;;;;;;;5014607;28;20428;-82
2021/07/28 09:12:18;;;;;;;25.10;23.50;;;;;;;;;;5015112;28;20459;-82
2021/07/28 09:14:56;;;;;;;25.93;24.23;;;;;;;;;;5014515;28;20451;-83
2021/07/28 09:17:27;;;;;;;24.43;22.93;;;;;;;;;;5014564;28;20514;-82
2021/07/28 09:19:55;;;;;;;22.70;21.50;;;;;;;;;;5014515;28;20421;-82
2021/07/28 09:22:24;;;;;;;25.20;23.60;;;;;;;;;;5014660;28;20446;-82
2021/07/28 09:25:06;;;;;;;24.43;22.97;;;;;;;;;;5014386;28;20422;-83
2021/07/28 09:27:41;;;;;;;25.17;23.47;;;;;;;;;;5014393;28;20468;-82
2021/07/28 09:30:09;;;;;;;24.90;23.40;;;;;;;;;;5014225;28;20925;-82
2021/07/28 09:32:37;;;;;;;26.30;24.80;;;;;;;;;;5014509;28;20447;-82
2021/07/28 09:35:05;;;;;;;23.97;22.57;;;;;;;;;;5014222;28;20949;-82
2021/07/28 09:37:40;;;;;;;24.83;23.30;;;;;;;;;;5013818;28;20444;-82
2021/07/28 09:40:08;;;;;;;24.33;22.83;;;;;;;;;;5014069;28;20786;-82
2021/07/28 09:42:35;;;;;;;24.60;23.10;;;;;;;;;;5014228;28;20448;-83
2021/07/28 09:45:03;;;;;;;24.13;22.63;;;;;;;;;;5014033;28;20444;-83
2021/07/28 09:47:40;;;;;;;24.80;23.10;;;;;;;;;;5014015;28;20446;-82
2021/07/28 09:50:16;;;;;;;23.07;21.77;;;;;;;;;;5014122;28;20482;-82
2021/07/28 09:52:50;;;;;;;23.77;22.37;;;;;;;;;;5014515;28;20526;-83
2021/07/28 09:55:24;;;;;;;24.30;22.80;;;;;;;;;;5013963;28;20945;-83
2021/07/28 09:57:55;;;;;;;21.50;20.30;;;;;;;;;;5013919;28;20783;-82
2021/07/28 10:00:23;;;;;;;22.37;21.03;;;;;;;;;;5014198;28;20459;-82
2021/07/28 10:02:52;;;;;;;20.70;19.57;;;;;;;;;;5014110;28;20772;-82
2021/07/28 10:05:20;;;;;;;21.67;20.57;;;;;;;;;;5013811;28;20434;-82
2021/07/28 10:07:51;;;;;;;21.93;20.63;;;;;;;;;;5013805;28;20483;-82
2021/07/28 10:10:20;;;;;;;22.93;21.67;;;;;;;;;;5014128;28;20436;-82
2021/07/28 10:12:48;;;;;;;22.53;21.33;;;;;;;;;;5014079;28;20422;-82
2021/07/28 10:15:16;;;;;;;22.10;20.90;;;;;;;;;;5013917;28;20855;-82
2021/07/28 10:17:44;;;;;;;23.37;21.90;;;;;;;;;;5013719;28;20422;-82
2021/07/28 10:20:13;;;;;;;24.20;22.77;;;;;;;;;;5013889;28;20433;-82
2021/07/28 10:22:41;;;;;;;24.40;23.10;;;;;;;;;;5013605;28;20789;-82
2021/07/28 10:25:14;;;;;;;24.73;23.33;;;;;;;;;;5013563;28;20410;-82
2021/07/28 10:27:44;;;;;;;23.67;22.37;;;;;;;;;;5013745;28;20431;-82
2021/07/28 10:30:14;;;;;;;23.40;21.97;;;;;;;;;;5013763;28;20439;-82
2021/07/28 10:32:42;;;;;;;24.30;22.80;;;;;;;;;;5013825;28;20446;-88
2021/07/28 10:35:35;;;;;;;22.87;21.50;;;;;;;;;;5013430;28;20430;-82
2021/07/28 10:38:03;;;;;;;42.03;39.70;;;;;;;;;;5013859;28;20433;-82
2021/07/28 10:41:09;;;;;;;37.77;35.67;;;;;;;;;;5013447;28;20799;-84
2021/07/28 10:43:51;;;;;;;33.50;31.50;;;;;;;;;;4953233;29;20449;-81
2021/07/28 10:46:20;;;;;;;35.80;33.70;;;;;;;;;;4952528;29;20453;-91
2021/07/28 10:48:52;;;;;;;35.67;33.27;;;;;;;;;;4955664;28;20485;-87
2021/07/28 10:51:37;;;;;;;34.00;32.03;;;;;;;;;;4956655;29;20471;-82
2021/07/28 10:54:04;;;;;;;32.57;30.67;;;;;;;;;;4957265;29;20453;-82
2021/07/28 10:56:31;;;;;;;31.63;29.73;;;;;;;;;;4955706;28;20424;-82
2021/07/28 10:59:19;;;;;;;29.57;27.63;;;;;;;;;;4956737;29;20427;-82
2021/07/28 11:01:53;;;;;;;29.07;27.27;;;;;;;;;;4956499;29;20430;-83
2021/07/28 11:04:24;;;;;;;29.87;28.10;;;;;;;;;;4956462;29;20484;-82
2021/07/28 11:06:51;;;;;;;27.00;25.50;;;;;;;;;;4956816;29;20448;-82
2021/07/28 11:09:19;;;;;;;27.97;26.30;;;;;;;;;;4956552;29;20496;-83
2021/07/28 11:11:50;;;;;;;28.00;26.27;;;;;;;;;;4956499;28;20481;-82
2021/07/28 11:14:18;;;;;;;27.33;25.73;;;;;;;;;;4956406;29;20480;-82
2021/07/28 11:16:52;;;;;;;27.23;25.83;;;;;;;;;;4956415;29;20927;-82
2021/07/28 11:19:21;;;;;;;28.90;27.00;;;;;;;;;;4990705;28;20870;-82
2021/07/28 11:21:48;;;;;;;29.20;27.60;;;;;;;;;;5016647;28;20490;-82
2021/07/28 11:24:17;;;;;;;30.30;28.50;;;;;;;;;;5016374;28;20442;-81
2021/07/28 11:26:45;;;;;;;31.27;29.17;;;;;;;;;;5016387;28;20538;-82
2021/07/28 11:29:17;;;;;;;31.17;29.47;;;;;;;;;;5016640;28;20471;-82
2021/07/28 11:31:45;;;;;;;31.77;29.67;;;;;;;;;;5016776;28;20529;-82
2021/07/28 11:34:27;;;;;;;29.80;28.00;;;;;;;;;;5016355;28;20912;-82
2021/07/28 11:37:01;;;;;;;33.03;31.13;;;;;;;;;;5017583;28;20424;-82
2021/07/28 11:39:29;;;;;;;32.13;30.40;;;;;;;;;;5016371;28;20566;-81
2021/07/28 11:42:05;;;;;;;28.90;27.30;;;;;;;;;;5016656;28;20443;-82
2021/07/28 11:44:40;;;;;;;27.70;26.13;;;;;;;;;;5016223;28;20908;-80
2021/07/28 11:47:09;;;;;;;25.90;24.53;;;;;;;;;;5016327;28;20887;-81
2021/07/28 11:49:36;;;;;;;27.53;26.03;;;;;;;;;;5016104;28;20513;-81
2021/07/28 11:52:05;;;;;;;28.70;27.30;;;;;;;;;;5015246;28;20452;-81
2021/07/28 11:54:33;;;;;;;27.03;25.37;;;;;;;;;;5016314;28;20455;-81
2021/07/28 11:57:01;;;;;;;27.50;25.73;;;;;;;;;;5015837;28;20914;-81
2021/07/28 11:59:31;;;;;;;27.50;25.73;;;;;;;;;;5015313;28;20421;-81
2021/07/28 12:01:59;;;;;;;26.77;25.13;;;;;;;;;;5016400;28;20478;-82
2021/07/28 12:04:27;;;;;;;27.77;26.17;;;;;;;;;;5016288;28;20523;-82
2021/07/28 12:06:58;;;;;;;27.80;26.20;;;;;;;;;;5016199;28;20417;-89
2021/07/28 12:09:28;;;;;;;28.30;26.60;;;;;;;;;;5015741;28;20577;-81
2021/07/28 12:12:00;;;;;;;29.53;27.83;;;;;;;;;;5014764;28;20750;-81
2021/07/28 12:14:29;;;;;;;26.93;25.13;;;;;;;;;;5014850;28;20775;-80
2021/07/28 12:16:57;;;;;;;26.80;24.90;;;;;;;;;;5016509;28;20420;-81
2021/07/28 12:19:25;;;;;;;27.77;26.07;;;;;;;;;;5015957;28;20500;-81
2021/07/28 12:21:53;;;;;;;27.50;25.63;;;;;;;;;;5015831;28;20446;-81
2021/07/28 12:24:32;;;;;;;27.27;25.67;;;;;;;;;;5015461;28;20439;-81
2021/07/28 12:27:21;;;;;;;27.90;26.30;;;;;;;;;;5015333;28;20772;-81
2021/07/28 12:29:57;;;;;;;26.90;25.30;;;;;;;;;;5015216;28;20481;-81
2021/07/28 12:32:34;;;;;;;28.37;26.67;;;;;;;;;;5015592;28;20487;-81
2021/07/28 12:35:02;;;;;;;26.83;25.23;;;;;;;;;;5015347;28;20576;-81
2021/07/28 12:37:29;;;;;;;25.47;23.83;;;;;;;;;;5015568;28;20413;-81
2021/07/28 12:39:58;;;;;;;26.10;24.60;;;;;;;;;;5015292;28;20922;-81
2021/07/28 12:42:26;;;;;;;26.00;24.50;;;;;;;;;;5014204;28;20849;-81
2021/07/28 12:44:53;;;;;;;25.40;23.80;;;;;;;;;;5015016;28;20455;-81
2021/07/28 12:47:21;;;;;;;25.27;23.37;;;;;;;;;;5015389;28;20797;-81
2021/07/28 12:49:48;;;;;;;25.87;24.20;;;;;;;;;;5014792;28;20477;-81
2021/07/28 12:52:15;;;;;;;23.70;22.30;;;;;;;;;;5014874;28;20484;-81
2021/07/28 12:54:42;;;;;;;24.27;22.67;;;;;;;;;;5015172;28;20456;-81
2021/07/28 12:57:11;;;;;;;24.10;22.70;;;;;;;;;;5015035;28;20455;-81
2021/07/28 12:59:39;;;;;;;22.83;21.63;;;;;;;;;;5014864;28;20448;-81
2021/07/28 13:02:06;;;;;;;23.00;21.70;;;;;;;;;;5015116;28;20440;-81
2021/07/28 13:04:34;;;;;;;23.63;22.10;;;;;;;;;;5015237;28;20483;-81
2021/07/28 13:07:11;;;;;;;23.40;21.93;;;;;;;;;;5014689;28;20426;-81
2021/07/28 13:09:38;;;;;;;23.23;21.80;;;;;;;;;;5015177;28;20493;-83
2021/07/28 13:12:06;;;;;;;23.70;22.30;;;;;;;;;;5014119;28;20426;-82
2021/07/28 13:14:35;;;;;;;24.70;23.00;;;;;;;;;;5015196;28;20419;-83
2021/07/28 13:17:02;;;;;;;23.50;22.20;;;;;;;;;;5015072;28;20422;-82
2021/07/28 13:19:29;;;;;;;24.20;22.70;;;;;;;;;;5014529;28;20781;-82
2021/07/28 13:21:57;;;;;;;24.13;22.73;;;;;;;;;;5015033;28;20811;-84
2021/07/28 13:24:24;;;;;;;23.13;21.90;;;;;;;;;;5014386;28;20436;-81
2021/07/28 13:26:51;;;;;;;23.90;22.20;;;;;;;;;;5014333;28;20422;-81
2021/07/28 13:29:19;;;;;;;22.03;20.73;;;;;;;;;;5013408;28;20483;-81
2021/07/28 13:31:48;;;;;;;23.83;22.33;;;;;;;;;;5014657;28;20443;-81
2021/07/28 13:34:16;;;;;;;23.30;22.00;;;;;;;;;;5014866;28;20831;-82
2021/07/28 13:36:43;;;;;;;23.70;22.37;;;;;;;;;;5013217;28;20436;-81
2021/07/28 13:39:10;;;;;;;22.93;21.53;;;;;;;;;;5014223;28;20455;-81
2021/07/28 13:41:38;;;;;;;23.73;22.20;;;;;;;;;;5012979;28;20422;-81
2021/07/28 13:44:05;;;;;;;23.00;21.53;;;;;;;;;;5014426;28;20414;-81
2021/07/28 13:46:33;;;;;;;22.90;21.60;;;;;;;;;;5014006;28;20443;-81
2021/07/28 13:49:02;;;;;;;22.77;21.37;;;;;;;;;;5014067;28;20534;-81
2021/07/28 13:51:29;;;;;;;22.50;21.30;;;;;;;;;;5014277;28;20480;-81
2021/07/28 13:53:57;;;;;;;23.77;22.30;;;;;;;;;;5013076;28;20444;-82
2021/07/28 13:56:24;;;;;;;23.20;21.93;;;;;;;;;;5014050;28;20441;-81
2021/07/28 13:58:51;;;;;;;23.00;21.50;;;;;;;;;;5014186;28;20459;-81
2021/07/28 14:01:18;;;;;;;22.73;21.47;;;;;;;;;;5014200;28;20414;-82
2021/07/28 14:03:46;;;;;;;22.80;21.60;;;;;;;;;;5014084;28;20459;-81
2021/07/28 14:06:14;;;;;;;23.00;21.70;;;;;;;;;;5014177;28;20449;-81
2021/07/28 14:08:42;;;;;;;24.00;22.43;;;;;;;;;;5014191;28;20435;-82
2021/07/28 14:11:09;;;;;;;23.43;22.03;;;;;;;;;;5014108;28;20426;-80
2021/07/28 14:13:37;;;;;;;23.47;22.20;;;;;;;;;;5013816;28;20903;-82
2021/07/28 14:16:05;;;;;;;24.17;22.67;;;;;;;;;;5013961;28;20426;-82
2021/07/28 14:18:32;;;;;;;24.37;23.07;;;;;;;;;;5013632;28;20439;-82
2021/07/28 14:21:00;;;;;;;23.50;22.10;;;;;;;;;;5013753;28;20430;-82
2021/07/28 14:23:29;;;;;;;22.60;21.40;;;;;;;;;;5016187;28;20411;-82
2021/07/28 14:25:57;;;;;;;23.50;22.20;;;;;;;;;;5017637;28;20892;-82
2021/07/28 14:28:24;;;;;;;23.67;22.27;;;;;;;;;;5017724;28;20440;-82